Weather observations for the past three days for
Rochester Fulton County Airport
Imperial (Metric)
Date Time (edt) Wind (mph) Vis. (mi.) Weather Sky Cond. Temperature (ºF) Relative Humidity Wind Chill (°F) Heat Index (°F) Pressure Precipitation (in)
Air Dwpt 6 hour altimeter (in) sea level (mb) 1 hr 3 hr 6 hr
Max. Min.
05 13:55 Calm 9.00 Mostly Cloudy SCT021 BKN041 82.4 75.2 79% 89 29.94 0.0
05 13:35 Calm 10.00 Overcast OVC021 80.6 75.2 84% 86 29.95 0.0
05 13:15 Calm 10.00 Overcast OVC022 80.6 73.4 79% 85 29.96 0.0
05 12:55 Vrbl 5 10.00 Partly Cloudy SCT022 80.6 73.4 79% 85 29.96 0.0
05 12:35 Calm 10.00 A Few Clouds FEW023 FEW027 FEW049 78.8 73.4 84% 82 29.96 0.0
05 12:15 S 5 10.00 Overcast OVC024 78.8 73.4 84% 82 29.96 0.0
05 11:55 S 6 10.00 Overcast OVC024 77 73.4 89% 78 29.97 0.0
05 11:35 S 6 10.00 Overcast SCT026 BKN038 OVC046 77 71.6 83% 78 29.97 0.0
05 11:15 Vrbl 6 10.00 Overcast FEW025 BKN036 OVC085 77 73.4 89% 78 29.96 0.0
05 10:55 S 7 10.00 Mostly Cloudy SCT025 BKN042 BKN050 75.2 71.6 89% 75 29.96 0.0
05 10:35 Vrbl 6 10.00 Mostly Cloudy SCT025 SCT031 BKN039 75.2 71.6 89% 75 29.96 0.0
05 10:15 S 9 10.00 Mostly Cloudy BKN026 BKN031 BKN037 75.2 69.8 83% 75 29.96 0.0
05 09:55 S 5 10.00 Mostly Cloudy BKN026 BKN060 75.2 71.6 89% 75 29.95 0.0
05 09:35 S 6 10.00 Partly Cloudy FEW029 SCT041 SCT048 73.4 71.6 94% 29.95 0.0
05 09:15 Vrbl 3 10.00 Mostly Cloudy FEW029 BKN041 BKN050 71.6 69.8 94% 29.94 0.0
05 08:55 SW 5 10.00 Mostly Cloudy SCT043 BKN050 71.6 69.8 94% 29.94 0.0
05 08:35 S 8 10.00 Light Rain FEW055 FEW070 SCT110 71.6 69.8 94% 29.94 0.0
05 08:15 S 8 10.00 Mostly Cloudy SCT050 BKN070 BKN080 71.6 69.8 94% 29.94 0.0
05 07:55 S 7 G 15 10.00 Mostly Cloudy FEW055 BKN065 69.8 69.8 100% 29.94 0.0
05 07:35 SE 8 10.00 Partly Cloudy FEW049 FEW060 SCT070 71.6 69.8 94% 29.93 0.0
05 07:15 S 8 G 16 10.00 Overcast BKN048 BKN060 OVC075 71.6 69.8 94% 29.93 0.0
05 06:55 SE 9 G 18 10.00 Mostly Cloudy BKN046 BKN050 71.6 69.8 94% 29.93 0.0
05 06:35 SE 15 G 21 10.00 A Few Clouds FEW007 73.4 71.6 94% 29.92 0.0
05 06:15 SE 9 9.00 A Few Clouds FEW007 73.4 73.4 100% 29.93 0.0
05 05:55 Vrbl 6 G 12 10.00 Fair CLR 73.4 73.4 100% 29.93 0.0
05 05:35 E 8 10.00 A Few Clouds FEW015 73.4 73.4 100% 29.93 0.0
05 05:15 E 10 9.00 Partly Cloudy FEW010 SCT015 SCT120 75.2 75.2 100% 73 29.93 0.0
05 04:55 NE 6 8.00 A Few Clouds FEW008 FEW120 75.2 75.2 100% 73 29.93 0.0
05 04:35 NE 7 9.00 Mostly Cloudy BKN120 75.2 75.2 100% 73 29.92 0.0
05 04:15 Calm 9.00 Mostly Cloudy BKN110 75.2 75.2 100% 73 29.92 0.0
05 03:55 Calm 10.00 Fair CLR 77 77 100% 78 29.91 0.0
05 03:35 W 3 10.00 Thunderstorm in Vicinity FEW070 77 77 100% 78 29.9 0.0
05 03:15 Calm 9.00 Mostly Cloudy BKN070 77 77 100% 78 29.91 0.0
05 02:55 Calm 10.00 Partly Cloudy SCT070 78.8 77 94% 83 29.91 0.0
05 02:35 SW 5 10.00 Fair CLR 77 77 100% 78 29.89 0.0
05 02:15 SW 3 6.00 Fog/Mist CLR 75.2 75.2 100% 73 29.89 0.0
05 01:55 Calm 6.00 Fog/Mist FEW085 75.2 75.2 100% 73 29.91 0.0
05 01:35 Calm 5.00 Fog/Mist FEW085 75.2 75.2 100% 73 29.92 0.0
05 01:15 Calm 6.00 Fog/Mist CLR 75.2 75.2 100% 73 29.92 0.0
05 00:55 Calm 7.00 Fair CLR 77 77 100% 78 29.92 0.0
05 00:35 Calm 6.00 Fog/Mist SCT110 75.2 75.2 100% 73 29.93 0.0
05 00:15 Calm 6.00 Fog/Mist BKN110 77 77 100% 78 29.93 0.0
04 23:55 E 5 8.00 Mostly Cloudy BKN110 77 77 100% 78 29.94 0.0
04 23:35 Calm 10.00 Overcast OVC110 78.8 78.8 100% 83 29.94 0.0
04 23:15 Calm 8.00 Partly Cloudy SCT110 77 77 100% 78 29.94 0.0
04 22:55 Calm 7.00 Fair CLR 77 77 100% 78 29.95 0.0
04 22:35 Calm 8.00 Fair CLR 77 77 100% 78 29.94 0.0
04 22:15 Calm 9.00 Fair CLR 78.8 78.8 100% 83 29.94 0.0
04 21:55 Calm 10.00 Fair CLR 78.8 78.8 100% 83 29.93 0.0
04 21:35 E 3 10.00 Fair CLR 78.8 78.8 100% 83 29.93 0.0
04 21:15 Calm 10.00 Fair CLR 78.8 78.8 100% 83 29.93 0.0
04 20:55 E 5 10.00 Fair CLR 78.8 78.8 100% 83 29.93 0.0
04 20:35 NE 5 10.00 Fair CLR 80.6 80.6 100% 89 29.92 0.0
04 20:15 Calm 10.00 Fair CLR 84.2 80.6 89% 98 29.92 0.0
04 19:55 Calm 10.00 Fair CLR 86 80.6 84% 102 29.92 0.0
04 19:35 S 6 10.00 Fair CLR 86 80.6 84% 102 29.92 0.0
04 19:15 S 5 10.00 Fair CLR 86 78.8 79% 99 29.92 0.0
04 18:55 S 3 10.00 Fair CLR 86 78.8 79% 99 29.92 0.0
04 18:35 S 7 10.00 Fair CLR 87.8 78.8 75% 102 29.92 0.0
04 18:15 S 6 10.00 Fair CLR 87.8 78.8 75% 102 29.92 0.0
04 17:55 Vrbl 5 10.00 Fair CLR 86 78.8 79% 99 29.92 0.0
04 17:35 SE 6 10.00 Fair CLR 86 78.8 79% 99 29.92 0.0
04 17:15 SE 7 10.00 Fair CLR 86 77 75% 97 29.92 0.0
04 16:55 Vrbl 7 10.00 Fair CLR 84.2 77 79% 94 29.93 0.0
04 16:35 S 9 G 17 10.00 Fair CLR 84.2 77 79% 94 29.92 0.0
04 16:15 SE 12 10.00 Fair CLR 84.2 75.2 74% 92 29.93 0.0
04 15:55 S 8 9.00 Fair CLR 80.6 77 89% 87 29.93 0.0
04 15:35 SE 9 G 15 10.00 Fair CLR 80.6 75.2 84% 86 29.95 0.0
04 15:15 E 10 G 17 10.00 Fair CLR 82.4 75.2 79% 89 29.99 0.0
04 14:55 NE 10 G 21 10.00 A Few Clouds FEW040 FEW046 84.2 75.2 74% 92 30 0.0
04 14:35 NE 12 G 21 10.00 Mostly Cloudy SCT028 SCT035 BKN041 82.4 77 84% 91 30.01 0.0
04 14:15 NE 12 G 20 10.00 Partly Cloudy FEW026 FEW034 SCT075 87.8 77 70% 100 30.01 0.0
04 13:55 E 8 10.00 Fair CLR 87.8 77 70% 100 30.01 0.0
04 13:35 NE 10 10.00 Fair CLR 87.8 77 70% 100 30.02 0.0
04 13:15 NE 12 10.00 Fair CLR 87.8 77 70% 100 30.02 0.0
04 12:55 NE 9 G 16 10.00 A Few Clouds FEW037 87.8 77 70% 100 30.01 0.0
04 12:35 N 8 10.00 A Few Clouds FEW037 89.6 77 67% 103 30.01 0.0
04 12:15 N 12 10.00 Fair CLR 89.6 75.2 63% 100 30.01 0.0
04 11:55 W 5 10.00 A Few Clouds FEW075 89.6 75.2 63% 100 30 0.0
04 11:35 Vrbl 5 10.00 A Few Clouds FEW075 89.6 75.2 63% 100 30 0.0
04 11:15 Vrbl 5 G 12 10.00 Fair CLR 87.8 75.2 66% 98 30 0.0
04 10:55 Vrbl 7 10.00 Fair CLR 87.8 75.2 66% 98 30 0.0
04 10:35 W 6 10.00 Fair CLR 86 77 75% 97 29.99 0.0
04 10:15 SW 7 10.00 Fair CLR 84.2 77 79% 94 29.99 0.0
04 09:35 Vrbl 5 10.00 Fair CLR 80.6 75.2 84% 86 29.99 0.0
04 09:15 SW 5 10.00 Fair CLR 80.6 75.2 84% 86 29.99 0.0
04 08:55 Calm 10.00 Fair CLR 77 75.2 94% 78 29.98 0.0
04 08:35 Calm 10.00 Fair CLR 77 73.4 89% 78 29.98 0.0
04 08:15 Calm 10.00 Fair CLR 77 73.4 89% 78 29.98 0.0
04 07:55 Calm 10.00 Fair CLR 75.2 73.4 94% 74 29.97 0.0
04 07:35 Calm 10.00 Fair CLR 75.2 73.4 94% 74 29.97 0.0
04 07:15 Calm 10.00 Fair CLR 75.2 73.4 94% 74 29.96 0.0
04 06:55 Calm 10.00 Fair CLR 75.2 73.4 94% 74 29.95 0.0
04 06:35 SW 3 10.00 Fair CLR 75.2 73.4 94% 74 29.94 0.0
04 06:15 SW 6 10.00 Fair CLR 77 73.4 89% 78 29.94 0.0
04 05:55 SW 7 10.00 Fair CLR 75.2 73.4 94% 74 29.94 0.0
04 05:35 SW 3 10.00 Fair CLR 75.2 73.4 94% 74 29.95 0.0
04 05:15 SW 3 10.00 Fair CLR 75.2 73.4 94% 74 29.95 0.0
04 04:55 SW 3 10.00 Fair CLR 77 73.4 89% 78 29.95 0.0
04 04:35 SW 6 10.00 Fair CLR 77 73.4 89% 78 29.95 0.0
04 04:15 SW 7 10.00 Fair CLR 77 73.4 89% 78 29.94 0.0
04 03:55 Vrbl 6 G 12 10.00 Fair CLR 78.8 73.4 84% 82 29.94 0.0
04 03:35 S 5 10.00 Fair CLR 77 73.4 89% 78 29.94 0.0
04 03:15 Calm 10.00 Fair CLR 77 73.4 89% 78 29.96 0.0
04 02:55 S 5 10.00 Fair CLR 77 73.4 89% 78 29.96 0.0
04 02:35 S 5 10.00 Fair CLR 77 73.4 89% 78 29.97 0.0
04 02:15 S 6 10.00 Fair CLR 77 73.4 89% 78 29.97 0.0
04 01:55 Vrbl 5 10.00 Fair CLR 77 73.4 89% 78 29.97 0.0
04 01:35 S 5 10.00 Fair CLR 77 73.4 89% 78 29.98 0.0
04 01:15 S 5 10.00 Fair CLR 75.2 73.4 94% 74 29.98 0.0
04 00:55 S 5 10.00 Fair CLR 75.2 73.4 94% 74 29.98 0.0
04 00:35 SE 3 10.00 Fair CLR 75.2 73.4 94% 74 29.98 0.0
04 00:15 SE 5 10.00 A Few Clouds FEW085 75.2 73.4 94% 74 29.98 0.0
03 23:55 SE 6 10.00 Partly Cloudy SCT080 77 73.4 89% 78 29.98 0.0
03 23:35 SE 6 10.00 Partly Cloudy SCT080 77 71.6 83% 78 29.97 0.0
03 23:15 SE 6 10.00 Fair CLR 77 71.6 83% 78 29.98 0.0
03 22:55 E 3 10.00 Fair CLR 77 71.6 83% 78 29.98 0.0
03 22:35 E 8 10.00 A Few Clouds FEW110 77 73.4 89% 78 29.98 0.0
03 22:15 SE 8 G 14 10.00 Partly Cloudy SCT110 77 73.4 89% 78 29.98 0.0
03 21:55 SE 8 10.00 Fair CLR 78.8 75.2 89% 82 29.97 0.0
03 21:35 SE 8 G 16 10.00 Fair CLR 78.8 73.4 84% 82 29.97 0.0
03 21:15 E 10 10.00 Fair CLR 78.8 73.4 84% 82 29.97 0.0
03 20:55 E 10 10.00 Fair CLR 80.6 73.4 79% 85 29.97 0.0
03 20:35 SE 7 10.00 Fair CLR 80.6 75.2 84% 86 29.97 0.0
03 20:15 SE 7 10.00 Fair CLR 82.4 75.2 79% 89 29.97 0.0
03 19:55 SE 5 10.00 Fair CLR 82.4 73.4 74% 88 29.97 0.0
03 19:35 E 3 10.00 Fair CLR 82.4 73.4 74% 88 29.96 0.0
03 19:15 NE 5 10.00 Fair CLR 84.2 73.4 70% 91 29.95 0.0
03 18:55 NE 6 10.00 Fair CLR 84.2 73.4 70% 91 29.95 0.0
03 18:35 NE 7 10.00 Fair CLR 86 73.4 66% 93 29.95 0.0
03 18:15 NE 9 10.00 Fair CLR 86 73.4 66% 93 29.95 0.0
03 17:55 N 7 10.00 A Few Clouds FEW110 87.8 73.4 62% 96 29.95 0.0
03 17:35 N 7 G 14 10.00 Fair CLR 86 73.4 66% 93 29.95 0.0
03 17:15 N 12 10.00 Fair CLR 86 73.4 66% 93 29.95 0.0
03 16:55 N 9 G 16 10.00 A Few Clouds FEW049 FEW055 86 73.4 66% 93 29.95 0.0
03 16:35 N 8 G 15 10.00 Partly Cloudy SCT049 SCT055 86 71.6 62% 92 29.94 0.0
03 16:15 SW 12 10.00 Fair CLR 93.2 77 59% 107 29.93 0.0
03 15:55 SW 12 10.00 Fair CLR 93.2 77 59% 107 29.92 0.0
03 15:35 SW 13 10.00 Fair CLR 93.2 77 59% 107 29.93 0.0
03 15:15 S 9 G 16 10.00 Fair CLR 93.2 77 59% 107 29.95 0.0
03 14:55 Vrbl 7 G 14 10.00 Fair CLR 93.2 77 59% 107 29.96 0.0
03 14:35 SW 10 10.00 Fair CLR 91.4 77 63% 105 29.97 0.0
03 14:15 S 9 10.00 Fair CLR 91.4 78.8 67% 108 29.97 0.0
03 13:55 S 8 10.00 Fair CLR 91.4 77 63% 105 29.98 0.0
03 13:35 SW 9 10.00 Fair CLR 91.4 77 63% 105 29.97 0.0
03 13:15 Vrbl 7 10.00 Fair CLR 91.4 77 63% 105 29.97 0.0
03 12:55 Vrbl 7 10.00 Fair CLR 89.6 77 67% 103 29.97 0.0
03 12:35 S 7 10.00 Fair CLR 89.6 77 67% 103 29.98 0.0
03 12:15 S 8 10.00 Fair CLR 87.8 75.2 66% 98 29.99 0.0
03 11:55 S 9 10.00 Fair CLR 87.8 77 70% 100 29.99 0.0
03 11:35 SW 9 10.00 Fair CLR 87.8 75.2 66% 98 29.99 0.0
03 11:15 SW 8 10.00 Fair CLR 86 75.2 70% 95 30 0.0
03 10:55 SW 9 10.00 Fair CLR 86 75.2 70% 95 29.99 0.0
03 10:35 SW 8 G 14 10.00 Fair CLR 84.2 75.2 74% 92 29.99 0.0
03 10:15 SW 9 10.00 Fair CLR 84.2 75.2 74% 92 29.99 0.0
03 09:55 S 7 10.00 Fair CLR 82.4 75.2 79% 89 29.99 0.0
03 09:35 SW 7 10.00 Fair CLR 80.6 75.2 84% 86 29.99 0.0
03 09:15 Vrbl 5 10.00 Fair CLR 80.6 73.4 79% 85 29.99 0.0
03 08:55 SW 6 10.00 Fair CLR 78.8 73.4 84% 82 30 0.0
03 08:35 SW 6 G 12 10.00 Fair CLR 78.8 73.4 84% 82 30 0.0
03 08:15 Vrbl 6 10.00 Fair CLR 77 73.4 89% 78 30 0.0
03 07:55 S 5 10.00 Fair CLR 77 73.4 89% 78 30 0.0
03 07:35 S 6 10.00 Fair CLR 75.2 73.4 94% 74 30 0.0
03 07:15 S 3 10.00 Fair CLR 75.2 73.4 94% 74 29.99 0.0
03 06:55 Calm 10.00 Fair CLR 75.2 73.4 94% 74 29.99 0.0
03 06:35 SW 5 10.00 Fair CLR 75.2 73.4 94% 74 29.98 0.0
03 06:15 Calm 10.00 Fair CLR 75.2 73.4 94% 74 29.98 0.0
03 05:55 Vrbl 3 10.00 Fair CLR 77 73.4 89% 78 29.98 0.0
03 05:35 SW 5 10.00 Fair CLR 77 73.4 89% 78 29.98 0.0
03 05:15 SW 6 10.00 Fair CLR 77 73.4 89% 78 29.98 0.0
03 04:55 SW 7 10.00 Fair CLR 77 75.2 94% 78 29.98 0.0
03 04:35 S 6 10.00 Fair CLR 77 75.2 94% 78 29.98 0.0
03 04:15 S 6 10.00 Fair CLR 77 75.2 94% 78 29.98 0.0
03 03:55 S 5 10.00 Fair CLR 77 75.2 94% 78 29.97 0.0
03 03:35 SW 5 10.00 Fair CLR 77 75.2 94% 78 29.98 0.0
03 03:15 SW 6 10.00 Fair CLR 77 75.2 94% 78 29.97 0.0
03 02:55 SW 6 10.00 Fair CLR 78.8 75.2 89% 82 29.97 0.0
03 02:35 SW 5 10.00 Fair CLR 78.8 75.2 89% 82 29.97 0.0
03 02:15 S 7 10.00 Fair CLR 80.6 75.2 84% 86 29.97 0.0
03 01:55 S 8 10.00 Fair CLR 80.6 75.2 84% 86 29.97 0.0
03 01:35 S 8 10.00 Fair CLR 80.6 75.2 84% 86 29.96 0.0
03 01:15 Vrbl 7 10.00 Fair CLR 80.6 75.2 84% 86 29.96 0.0
03 00:55 S 8 10.00 Fair CLR 80.6 77 89% 87 29.96 0.0
03 00:35 S 7 10.00 Fair CLR 80.6 77 89% 87 29.96 0.0
03 00:15 S 7 10.00 Fair CLR 80.6 77 89% 87 29.96 0.0
02 23:55 S 6 10.00 Fair CLR 80.6 77 89% 87 29.96 0.0
02 23:35 S 5 10.00 Fair CLR 80.6 77 89% 87 29.97 0.0
02 23:15 S 5 10.00 Fair CLR 82.4 77 84% 91 29.97 0.0
02 22:55 S 5 10.00 Fair CLR 82.4 77 84% 91 29.97 0.0
02 22:35 S 6 10.00 Fair CLR 82.4 77 84% 91 29.97 0.0
02 22:15 S 6 10.00 Fair CLR 82.4 77 84% 91 29.97 0.0
02 21:55 S 5 10.00 Fair CLR 82.4 77 84% 91 29.97 0.0
02 21:35 S 6 10.00 Fair CLR 84.2 77 79% 94 29.97 0.0
02 21:15 S 7 10.00 Fair CLR 84.2 78.8 84% 96 29.96 0.0
02 20:55 S 7 10.00 Fair CLR 84.2 78.8 84% 96 29.95 0.0
02 20:35 S 7 10.00 Fair CLR 86 78.8 79% 99 29.95 0.0
02 20:15 S 7 10.00 Fair CLR 86 78.8 79% 99 29.95 0.0
02 19:55 S 6 10.00 Fair CLR 86 78.8 79% 99 29.95 0.0
02 19:35 S 7 10.00 Fair CLR 87.8 78.8 75% 102 29.95 0.0
02 19:15 S 6 10.00 Partly Cloudy FEW085 SCT110 87.8 78.8 75% 102 29.96 0.0
02 18:55 S 7 10.00 Fair CLR 87.8 78.8 75% 102 29.96 0.0
02 18:35 S 6 10.00 Fair CLR 89.6 78.8 71% 105 29.96 0.0
02 18:15 S 8 10.00 Fair CLR 91.4 78.8 67% 108 29.96 0.0
02 17:55 S 7 10.00 Fair CLR 91.4 78.8 67% 108 29.96 0.0
02 17:35 S 10 10.00 Fair CLR 91.4 77 63% 105 29.96 0.0
02 17:15 S 10 10.00 Fair CLR 91.4 77 63% 105 29.96 0.0
02 16:55 SW 9 10.00 Fair CLR 91.4 77 63% 105 29.96 0.0
02 16:35 SW 9 10.00 Fair CLR 91.4 77 63% 105 29.97 0.0
02 16:15 SW 10 10.00 Fair CLR 91.4 77 63% 105 29.97 0.0
02 15:55 S 9 G 16 10.00 Fair CLR 91.4 77 63% 105 29.98 0.0
02 15:35 SW 10 10.00 Fair CLR 91.4 77 63% 105 29.98 0.0
02 15:15 SW 9 9.00 Fair CLR 91.4 77 63% 105 29.99 0.0
02 14:55 SW 8 G 15 10.00 Fair CLR 91.4 77 63% 105 29.99 0.0
02 14:35 S 12 10.00 Fair CLR 91.4 77 63% 105 29.99 0.0
Date Time (edt) Wind (mph) Vis. (mi.) Weather Sky Cond. Air Dwpt Max. Min. Relative Humidity Wind Chill (°F) Heat Index (°F) altimeter (in) sea level (mb) 1 hr 3 hr 6 hr
6 hour
Temperature (ºF) Pressure Precipitation (in)